Terminal Aerodrome Forecast
Issued by NWS

Home | Current Version | Previous Version | Text Only | Print | Product List | Glossary On
Versions: 1 2 3 4 5 6 7 8 9 10 11 12 13 14 15 16 17 18 19 20 21
000
FTUS45 KTFX 280500
TAFHLN
TAF
KHLN 280520Z 2806/2906 VRB06KT P6SM SCT060 BKN100 WS020/26035KT
     FM281800 26014KT P6SM BKN120
     FM290300 26015G25KT P6SM VCSH SCT060 BKN100=

USA.gov is the U.S. government's official web portal to all federal, state and local government web resources and services.